Time;durP1;ratioP1;P1;durP2;ratioP2;P2;SDS_P1;SDS_P2;PMS_P1;PMS_P2;Temp;Humidity;BMP_temperature;BMP_pressure;BME280_temperature;BME280_humidity;BME280_pressure;Samples;Min_cycle;Max_cycle;Signal;HPM_P1;HPM_P2
2023/02/22 00:00:35;;;;;;;11.30;5.18;;;5.00;72.90;;;;;;5011605;28;20025;-58
2023/02/22 00:03:01;;;;;;;7.85;5.38;;;5.00;72.70;;;;;;5013356;28;20046;-60
2023/02/22 00:05:27;;;;;;;8.90;5.63;;;5.00;72.70;;;;;;5014094;28;20045;-60
2023/02/22 00:07:56;;;;;;;10.27;5.72;;;4.90;72.70;;;;;;5016934;28;20036;-60
2023/02/22 00:10:23;;;;;;;12.00;5.88;;;4.90;73.10;;;;;;5015741;28;20059;-60
2023/02/22 00:12:51;;;;;;;9.55;5.65;;;4.80;73.30;;;;;;5015455;28;20037;-60
2023/02/22 00:15:20;;;;;;;8.55;5.25;;;4.80;73.60;;;;;;5011904;28;20037;-59
2023/02/22 00:17:46;;;;;;;11.88;5.28;;;4.80;73.80;;;;;;5015811;28;20047;-58
2023/02/22 00:20:14;;;;;;;10.80;5.35;;;4.80;73.80;;;;;;5011140;28;20065;-57
2023/02/22 00:22:41;;;;;;;9.77;5.85;;;4.70;74.00;;;;;;5013409;28;20451;-61
2023/02/22 00:25:08;;;;;;;10.07;5.57;;;4.70;74.10;;;;;;5014424;28;20033;-61
2023/02/22 00:27:33;;;;;;;11.57;5.75;;;4.70;74.10;;;;;;5014538;28;20037;-60
2023/02/22 00:29:59;;;;;;;10.05;5.97;;;4.80;74.30;;;;;;5013364;28;20041;-62
2023/02/22 00:32:24;;;;;;;10.05;6.40;;;4.70;74.30;;;;;;5015486;28;20034;-61
2023/02/22 00:34:52;;;;;;;10.30;5.97;;;4.70;74.50;;;;;;5013950;28;20560;-59
2023/02/22 00:37:19;;;;;;;10.63;5.57;;;4.70;74.60;;;;;;5014599;28;20124;-60
2023/02/22 00:39:49;;;;;;;11.70;6.07;;;4.70;74.50;;;;;;5016108;28;20468;-59
2023/02/22 00:42:16;;;;;;;9.57;5.97;;;4.70;74.50;;;;;;5012289;28;20038;-59
2023/02/22 00:44:42;;;;;;;12.10;6.75;;;4.70;74.10;;;;;;5011110;28;20113;-58
2023/02/22 00:47:08;;;;;;;11.15;5.82;;;4.70;74.10;;;;;;5014974;28;20353;-60
2023/02/22 00:49:34;;;;;;;10.10;5.93;;;4.70;74.30;;;;;;5012237;28;20048;-61
2023/02/22 00:52:00;;;;;;;10.35;6.07;;;4.70;74.20;;;;;;5014087;28;20053;-58
2023/02/22 00:54:26;;;;;;;8.93;5.88;;;4.70;74.10;;;;;;5014452;28;20042;-59
2023/02/22 00:56:52;;;;;;;10.88;6.53;;;4.70;74.80;;;;;;5012624;28;20243;-61
2023/02/22 00:59:17;;;;;;;12.18;6.50;;;4.70;74.10;;;;;;5012583;28;20395;-59
2023/02/22 01:01:43;;;;;;;11.70;6.72;;;4.70;74.10;;;;;;5012272;28;20303;-59
2023/02/22 01:04:09;;;;;;;13.88;7.00;;;4.70;73.90;;;;;;5012170;28;20139;-58
2023/02/22 01:06:35;;;;;;;12.20;6.78;;;4.70;73.80;;;;;;5013560;28;20576;-61
2023/02/22 01:09:01;;;;;;;13.77;7.60;;;4.70;73.60;;;;;;5016193;28;20080;-59
2023/02/22 01:11:27;;;;;;;15.02;7.57;;;4.70;73.60;;;;;;5014734;28;20539;-59
2023/02/22 01:13:54;;;;;;;12.52;6.90;;;4.60;73.60;;;;;;5013990;28;20069;-60
2023/02/22 01:16:20;;;;;;;14.23;6.95;;;4.60;73.70;;;;;;5010768;28;20033;-59
2023/02/22 01:18:45;;;;;;;10.27;6.32;;;4.50;73.80;;;;;;5029387;28;20041;-59
2023/02/22 01:21:11;;;;;;;12.52;6.93;;;4.50;73.80;;;;;;5014924;28;20080;-61
2023/02/22 01:23:37;;;;;;;12.45;6.72;;;4.50;73.80;;;;;;5018050;28;20049;-61
2023/02/22 01:26:04;;;;;;;15.15;7.13;;;4.50;73.80;;;;;;5018436;28;20026;-60
2023/02/22 01:28:31;;;;;;;11.45;6.78;;;4.50;74.00;;;;;;5017519;28;20039;-58
2023/02/22 01:30:56;;;;;;;10.27;6.53;;;4.50;74.00;;;;;;5017845;28;20128;-61
2023/02/22 01:33:22;;;;;;;13.18;6.95;;;4.50;74.10;;;;;;5017419;28;20552;-58
2023/02/22 01:35:49;;;;;;;10.20;6.38;;;4.40;74.00;;;;;;5017408;28;20025;-59
2023/02/22 01:38:16;;;;;;;10.80;6.70;;;4.40;74.10;;;;;;5017596;28;20042;-60
2023/02/22 01:40:45;;;;;;;12.13;6.70;;;4.40;74.30;;;;;;5013492;28;20513;-59
2023/02/22 01:43:28;;;;;;;12.95;6.93;;;4.40;74.30;;;;;;5015849;28;20176;-59
2023/02/22 01:45:56;;;;;;;11.63;6.50;;;4.40;74.40;;;;;;5017188;28;20121;-59
2023/02/22 01:48:25;;;;;;;10.88;6.30;;;4.40;74.30;;;;;;5015446;28;20065;-61
2023/02/22 01:50:56;;;;;;;10.05;6.03;;;4.40;74.30;;;;;;5014549;28;20029;-59
2023/02/22 01:53:36;;;;;;;7.90;5.38;;;4.40;74.40;;;;;;5015081;28;20517;-58
2023/02/22 01:56:02;;;;;;;10.93;6.13;;;4.40;74.60;;;;;;5017267;28;20029;-58
2023/02/22 01:58:31;;;;;;;10.40;5.85;;;4.40;74.10;;;;;;5015093;28;20038;-60
2023/02/22 02:00:57;;;;;;;7.88;5.53;;;4.40;74.30;;;;;;5016412;28;20047;-58
2023/02/22 02:03:28;;;;;;;7.85;5.25;;;4.40;74.30;;;;;;5014824;28;20072;-59
2023/02/22 02:05:57;;;;;;;9.02;5.88;;;4.40;74.50;;;;;;5015995;28;20454;-61
2023/02/22 02:08:26;;;;;;;10.00;5.82;;;4.30;74.30;;;;;;5015501;28;20072;-56
2023/02/22 02:10:54;;;;;;;9.30;5.78;;;4.30;74.30;;;;;;5018906;28;20721;-59
2023/02/22 02:13:19;;;;;;;12.80;6.18;;;4.20;74.20;;;;;;5018315;28;20409;-60
2023/02/22 02:15:48;;;;;;;8.23;5.60;;;4.20;74.30;;;;;;5014524;28;20033;-59
2023/02/22 02:18:14;;;;;;;7.93;5.65;;;4.20;74.20;;;;;;5012345;28;20915;-61
2023/02/22 02:21:12;;;;;;;8.25;5.72;;;4.20;74.20;;;;;;5012435;28;20144;-60
2023/02/22 02:23:59;;;;;;;10.82;5.95;;;4.20;74.50;;;;;;5016280;28;20041;-61
2023/02/22 02:26:34;;;;;;;10.10;5.57;;;4.20;74.60;;;;;;5018608;28;20096;-61
2023/02/22 02:29:25;;;;;;;10.25;6.20;;;4.20;74.30;;;;;;5013804;28;20099;-62
2023/02/22 02:32:03;;;;;;;9.65;5.85;;;4.20;74.30;;;;;;5008007;28;20038;-61
2023/02/22 02:34:46;;;;;;;10.57;6.43;;;4.20;74.00;;;;;;5014062;28;20117;-58
2023/02/22 02:37:24;;;;;;;11.68;6.57;;;4.20;74.30;;;;;;5014737;28;20398;-61
2023/02/22 02:39:59;;;;;;;10.13;6.20;;;4.20;74.20;;;;;;5016171;28;20046;-59
2023/02/22 02:42:36;;;;;;;10.85;6.45;;;4.20;74.20;;;;;;5016327;28;20343;-59
2023/02/22 02:45:14;;;;;;;11.10;6.47;;;4.10;74.10;;;;;;5015993;28;20029;-60
2023/02/22 02:47:47;;;;;;;10.98;5.95;;;4.00;74.30;;;;;;5014687;28;20041;-59
2023/02/22 02:50:22;;;;;;;13.23;6.15;;;4.00;74.30;;;;;;5015234;28;20061;-62
2023/02/22 02:52:49;;;;;;;9.25;6.00;;;3.90;74.30;;;;;;5031169;28;20135;-59
2023/02/22 02:55:16;;;;;;;9.88;6.28;;;3.90;74.20;;;;;;5014941;28;20037;-61
2023/02/22 02:57:42;;;;;;;8.68;5.85;;;3.90;74.30;;;;;;5016304;28;20041;-59
2023/02/22 03:00:21;;;;;;;8.43;5.82;;;3.80;74.30;;;;;;5015312;28;20107;-59
2023/02/22 03:03:05;;;;;;;8.07;5.47;;;3.80;74.30;;;;;;5014911;28;20037;-59
2023/02/22 03:05:33;;;;;;;9.85;5.50;;;3.70;75.00;;;;;;5011604;28;20444;-62
2023/02/22 03:08:23;;;;;;;10.40;4.90;;;3.70;74.60;;;;;;5015790;28;20045;-61
2023/02/22 03:11:05;;;;;;;8.32;5.63;;;3.60;75.00;;;;;;5015134;28;20034;-61
2023/02/22 03:13:58;;;;;;;8.98;5.78;;;3.60;74.80;;;;;;5016413;28;20034;-56
2023/02/22 03:16:49;;;;;;;8.50;5.65;;;3.50;75.20;;;;;;5013897;28;20175;-60
2023/02/22 03:19:55;;;;;;;8.77;5.82;;;3.50;75.40;;;;;;5016490;28;20030;-61
2023/02/22 03:22:36;;;;;;;10.90;6.70;;;3.50;75.50;;;;;;5018382;28;20034;-57
2023/02/22 03:25:12;;;;;;;11.15;6.43;;;3.50;75.20;;;;;;5018526;28;20080;-58
2023/02/22 03:27:46;;;;;;;12.32;7.15;;;3.40;75.10;;;;;;5014113;28;20748;-57
2023/02/22 03:30:42;;;;;;;14.43;7.18;;;3.40;75.20;;;;;;5017534;28;20559;-59
2023/02/22 03:33:14;;;;;;;12.10;7.22;;;3.40;75.70;;;;;;5011676;28;20041;-59
2023/02/22 03:35:47;;;;;;;14.88;6.82;;;3.40;75.20;;;;;;5015833;28;20044;-58
2023/02/22 03:38:17;;;;;;;12.07;6.82;;;3.30;75.50;;;;;;5015566;28;20130;-60
2023/02/22 03:40:48;;;;;;;8.88;6.13;;;3.30;75.70;;;;;;5009767;28;20088;-57
2023/02/22 03:43:20;;;;;;;9.80;6.22;;;3.40;75.70;;;;;;5013082;28;20063;-58
2023/02/22 03:45:49;;;;;;;10.05;6.13;;;3.30;75.50;;;;;;5014941;28;20104;-58
2023/02/22 03:48:35;;;;;;;10.60;6.18;;;3.30;75.40;;;;;;5015558;28;20230;-61
2023/02/22 03:51:03;;;;;;;10.50;5.65;;;3.40;75.80;;;;;;5011449;28;20594;-60
2023/02/22 03:53:31;;;;;;;11.88;6.15;;;3.30;75.30;;;;;;5014721;28;20187;-60
2023/02/22 03:55:58;;;;;;;10.40;5.57;;;3.30;75.30;;;;;;5011032;28;20091;-59
2023/02/22 03:58:26;;;;;;;9.25;5.63;;;3.40;75.40;;;;;;5012269;28;20042;-59
2023/02/22 04:00:52;;;;;;;12.63;6.70;;;3.30;75.30;;;;;;5012969;28;20034;-60
2023/02/22 04:03:19;;;;;;;10.52;6.53;;;3.30;75.30;;;;;;5011433;28;20041;-60
2023/02/22 04:05:45;;;;;;;12.77;6.53;;;3.30;75.50;;;;;;5016062;28;20037;-58
2023/02/22 04:08:10;;;;;;;8.63;6.07;;;3.20;75.60;;;;;;5014913;28;20033;-58
2023/02/22 04:10:36;;;;;;;13.23;6.25;;;3.20;75.70;;;;;;5018500;28;20086;-58
2023/02/22 04:13:03;;;;;;;8.70;6.00;;;3.20;75.70;;;;;;5011643;28;20056;-60
2023/02/22 04:15:28;;;;;;;10.05;5.90;;;3.20;76.50;;;;;;5011679;28;20030;-58
2023/02/22 04:17:54;;;;;;;8.73;5.90;;;3.20;75.50;;;;;;5015677;28;20030;-60
2023/02/22 04:20:24;;;;;;;11.65;6.75;;;3.20;75.70;;;;;;5013237;28;20544;-61
2023/02/22 04:22:51;;;;;;;10.38;6.82;;;3.20;75.70;;;;;;5010914;28;20034;-60
2023/02/22 04:25:17;;;;;;;11.55;7.25;;;3.20;75.70;;;;;;5010431;28;20406;-61
2023/02/22 04:27:43;;;;;;;11.05;6.88;;;3.20;75.70;;;;;;5011908;28;20046;-62
2023/02/22 04:30:10;;;;;;;8.77;6.45;;;3.20;75.70;;;;;;5014929;28;20056;-61
2023/02/22 04:32:36;;;;;;;11.27;6.47;;;3.10;76.70;;;;;;5015687;28;20117;-61
2023/02/22 04:35:03;;;;;;;11.98;6.10;;;3.10;75.80;;;;;;5014295;28;20104;-58
2023/02/22 04:37:28;;;;;;;10.50;6.15;;;3.00;75.90;;;;;;5015843;28;20493;-58
2023/02/22 04:39:54;;;;;;;14.40;6.70;;;3.00;76.00;;;;;;5014105;28;20702;-59
2023/02/22 04:42:19;;;;;;;13.45;6.43;;;3.00;76.10;;;;;;5013554;28;20515;-58
2023/02/22 04:44:45;;;;;;;9.70;6.97;;;3.00;76.10;;;;;;5013736;28;20068;-59
2023/02/22 04:47:11;;;;;;;20.02;13.73;;;3.00;76.20;;;;;;5014331;28;20414;-59
2023/02/22 04:49:36;;;;;;;11.80;6.63;;;2.90;76.20;;;;;;5013163;28;20053;-58
2023/02/22 04:52:02;;;;;;;11.13;7.13;;;2.90;76.30;;;;;;5010681;28;20470;-58
2023/02/22 04:54:28;;;;;;;12.15;6.95;;;2.90;76.40;;;;;;5016204;28;20048;-61
2023/02/22 04:56:53;;;;;;;9.75;6.40;;;2.90;76.60;;;;;;5018847;28;20040;-59
2023/02/22 04:59:19;;;;;;;9.27;6.35;;;2.90;76.90;;;;;;5019339;28;20042;-58
2023/02/22 05:01:44;;;;;;;10.52;6.43;;;2.90;76.90;;;;;;5017074;28;20188;-60
2023/02/22 05:04:10;;;;;;;8.95;6.35;;;2.80;76.70;;;;;;5014124;28;21458;-61
2023/02/22 05:06:36;;;;;;;12.20;7.15;;;2.80;76.70;;;;;;5015262;28;20399;-59
2023/02/22 05:09:01;;;;;;;14.07;7.97;;;2.80;76.60;;;;;;5014303;28;20576;-61
2023/02/22 05:11:27;;;;;;;13.95;8.75;;;2.80;76.60;;;;;;5015796;28;20049;-60
2023/02/22 05:13:53;;;;;;;16.70;8.38;;;2.80;76.60;;;;;;5017638;28;20038;-60
2023/02/22 05:16:19;;;;;;;16.67;9.40;;;2.80;76.60;;;;;;5016238;28;20078;-59
2023/02/22 05:18:44;;;;;;;12.95;8.85;;;2.80;76.60;;;;;;5016637;28;20064;-60
2023/02/22 05:21:10;;;;;;;15.38;8.88;;;2.80;76.50;;;;;;5016971;28;20037;-59
2023/02/22 05:23:35;;;;;;;12.95;7.82;;;2.80;76.50;;;;;;5018541;28;20026;-58
2023/02/22 05:26:01;;;;;;;14.50;7.75;;;2.80;76.50;;;;;;5019667;28;20041;-60
2023/02/22 05:28:27;;;;;;;13.15;7.40;;;2.80;76.50;;;;;;5013767;28;20076;-58
2023/02/22 05:30:52;;;;;;;11.05;6.78;;;2.80;76.50;;;;;;5014459;28;20096;-59
2023/02/22 05:33:18;;;;;;;12.60;6.55;;;2.70;76.40;;;;;;5015492;28;20033;-61
2023/02/22 05:35:45;;;;;;;12.55;7.18;;;2.70;76.40;;;;;;5013837;28;20034;-61
2023/02/22 05:38:13;;;;;;;11.00;6.75;;;2.70;76.50;;;;;;5019408;28;20030;-56
2023/02/22 05:40:40;;;;;;;12.38;6.38;;;2.70;76.80;;;;;;5015349;28;20033;-55
2023/02/22 05:43:06;;;;;;;12.30;7.00;;;2.70;76.90;;;;;;5017276;28;20528;-61
2023/02/22 05:45:32;;;;;;;11.52;6.90;;;2.60;76.80;;;;;;5020297;28;20065;-61
2023/02/22 05:47:58;;;;;;;8.98;6.13;;;2.60;77.00;;;;;;5019637;28;20070;-61
2023/02/22 05:50:25;;;;;;;10.52;6.50;;;2.60;77.40;;;;;;5019233;28;20030;-58
2023/02/22 05:52:51;;;;;;;9.77;6.75;;;2.60;77.40;;;;;;5018106;28;20037;-59
2023/02/22 05:55:19;;;;;;;11.73;7.20;;;2.60;77.40;;;;;;5018395;28;20035;-57
2023/02/22 05:57:46;;;;;;;11.85;7.53;;;2.60;77.40;;;;;;5019999;28;20426;-56
2023/02/22 06:00:26;;;;;;;10.57;7.38;;;2.50;77.30;;;;;;5019251;28;20129;-55
2023/02/22 06:03:02;;;;;;;10.27;6.93;;;2.60;77.80;;;;;;5019276;28;21048;-57
2023/02/22 06:05:29;;;;;;;12.80;7.93;;;2.60;77.70;;;;;;5020654;28;20034;-57
2023/02/22 06:07:55;;;;;;;13.68;9.20;;;2.50;77.60;;;;;;5018770;28;20037;-59
2023/02/22 06:10:21;;;;;;;17.83;10.40;;;2.60;77.80;;;;;;5019364;28;20096;-57
2023/02/22 06:12:48;;;;;;;18.50;10.32;;;2.60;77.80;;;;;;5018447;28;20514;-60
2023/02/22 06:15:15;;;;;;;16.63;9.80;;;2.60;77.70;;;;;;5017840;28;20452;-58
2023/02/22 06:17:41;;;;;;;16.83;9.80;;;2.60;77.60;;;;;;5018278;28;20038;-57
2023/02/22 06:20:13;;;;;;;15.10;9.25;;;2.60;77.70;;;;;;5020074;28;20097;-59
2023/02/22 06:22:41;;;;;;;16.60;9.13;;;2.60;77.80;;;;;;5018096;28;20165;-61
2023/02/22 06:25:08;;;;;;;14.88;9.32;;;2.60;77.60;;;;;;5018014;28;20030;-60
2023/02/22 06:27:34;;;;;;;12.82;8.40;;;2.70;77.60;;;;;;5017107;28;20573;-59
2023/02/22 06:30:00;;;;;;;14.77;8.77;;;2.70;77.40;;;;;;5017433;28;20522;-58
2023/02/22 06:32:26;;;;;;;11.20;7.85;;;2.70;77.40;;;;;;5017565;28;20120;-60
2023/02/22 06:34:52;;;;;;;15.00;7.93;;;2.70;77.40;;;;;;5018995;28;20041;-61
2023/02/22 06:37:18;;;;;;;12.40;8.18;;;2.70;77.40;;;;;;5019045;28;20297;-61
2023/02/22 06:39:43;;;;;;;14.43;7.50;;;2.70;77.40;;;;;;5018875;28;20398;-60
2023/02/22 06:42:09;;;;;;;12.65;7.68;;;2.70;77.20;;;;;;5017634;28;20029;-60
2023/02/22 06:44:34;;;;;;;14.43;8.00;;;2.80;77.40;;;;;;5017433;28;20042;-61
2023/02/22 06:47:00;;;;;;;11.85;7.72;;;2.80;77.30;;;;;;5018506;28;20034;-61
2023/02/22 06:49:27;;;;;;;15.13;8.75;;;2.80;77.40;;;;;;5017929;28;20571;-61
2023/02/22 06:51:53;;;;;;;13.48;8.50;;;2.80;77.30;;;;;;5017857;28;20053;-58
2023/02/22 06:54:19;;;;;;;15.63;9.68;;;2.80;77.40;;;;;;5018405;28;20034;-60
2023/02/22 06:56:45;;;;;;;19.88;10.82;;;2.90;77.40;;;;;;5018424;28;20048;-61
2023/02/22 06:59:10;;;;;;;22.98;12.90;;;2.90;77.40;;;;;;5018198;28;20037;-58
2023/02/22 07:01:39;;;;;;;38.40;18.02;;;2.90;77.50;;;;;;5018259;28;20167;-57
2023/02/22 07:04:04;;;;;;;34.13;15.07;;;3.00;77.60;;;;;;5018799;28;20033;-59
2023/02/22 07:06:30;;;;;;;20.00;11.48;;;3.00;77.60;;;;;;5018706;28;20038;-56
2023/02/22 07:08:55;;;;;;;20.02;10.88;;;3.00;77.80;;;;;;5019378;28;20037;-58
2023/02/22 07:11:21;;;;;;;27.60;13.68;;;3.10;78.00;;;;;;5022221;28;20121;-57
2023/02/22 07:13:46;;;;;;;24.95;13.65;;;3.20;78.30;;;;;;5019569;28;20034;-61
2023/02/22 07:16:12;;;;;;;26.02;13.02;;;3.20;78.50;;;;;;5018234;28;20053;-60
2023/02/22 07:18:38;;;;;;;27.45;13.35;;;3.20;78.70;;;;;;5018257;28;20034;-60
2023/02/22 07:21:04;;;;;;;27.15;12.88;;;3.30;78.80;;;;;;5018941;28;20029;-59
2023/02/22 07:23:30;;;;;;;23.65;12.50;;;3.40;79.00;;;;;;5018590;28;20553;-59
2023/02/22 07:25:59;;;;;;;28.80;11.57;;;3.50;79.10;;;;;;5017750;28;20131;-60
2023/02/22 07:28:24;;;;;;;21.58;10.27;;;3.50;79.20;;;;;;5017615;28;20786;-60
2023/02/22 07:30:50;;;;;;;26.42;12.48;;;3.60;79.10;;;;;;5016852;28;20136;-61
2023/02/22 07:33:16;;;;;;;31.90;14.00;;;3.60;79.20;;;;;;5016915;28;20026;-58
2023/02/22 07:35:46;;;;;;;40.20;16.20;;;3.70;79.20;;;;;;5017485;28;20060;-57
2023/02/22 07:38:14;;;;;;;35.33;15.98;;;3.80;79.30;;;;;;5017685;28;20443;-57
2023/02/22 07:40:41;;;;;;;29.88;15.05;;;3.80;79.20;;;;;;5017044;28;20033;-59
2023/02/22 07:43:15;;;;;;;31.15;14.60;;;3.90;79.20;;;;;;5017060;28;20044;-57
2023/02/22 07:45:40;;;;;;;26.13;13.30;;;3.90;79.50;;;;;;5016413;28;20034;-58
2023/02/22 07:48:07;;;;;;;28.77;12.55;;;4.00;79.20;;;;;;5017034;28;20032;-59
2023/02/22 07:50:34;;;;;;;21.15;11.57;;;4.10;79.10;;;;;;5017154;28;20036;-58
2023/02/22 07:53:05;;;;;;;22.42;11.63;;;4.10;79.20;;;;;;5017690;28;20489;-59
2023/02/22 07:55:32;;;;;;;30.80;12.38;;;4.20;79.40;;;;;;5015945;28;20497;-55
2023/02/22 07:58:00;;;;;;;22.25;12.18;;;4.30;79.30;;;;;;5017870;28;20037;-59
2023/02/22 08:00:38;;;;;;;23.73;12.30;;;4.30;79.50;;;;;;5018099;28;20041;-59
2023/02/22 08:03:06;;;;;;;19.48;11.13;;;4.30;79.70;;;;;;5017295;28;20040;-59
2023/02/22 08:05:34;;;;;;;21.55;10.93;;;4.40;79.40;;;;;;5017140;28;20060;-58
2023/02/22 08:08:01;;;;;;;21.10;11.55;;;4.50;79.50;;;;;;5018313;28;20717;-58
2023/02/22 08:10:27;;;;;;;21.30;10.68;;;4.50;79.30;;;;;;5021919;28;20037;-58
2023/02/22 08:12:54;;;;;;;19.00;11.07;;;4.60;79.30;;;;;;5016561;28;20034;-56
2023/02/22 08:15:29;;;;;;;22.67;11.50;;;4.70;79.30;;;;;;5018591;28;20041;-58
2023/02/22 08:17:56;;;;;;;24.60;12.10;;;4.70;79.50;;;;;;5017320;28;20064;-58
2023/02/22 08:20:22;;;;;;;23.80;12.25;;;4.80;79.30;;;;;;5017011;28;20033;-60
2023/02/22 08:22:48;;;;;;;22.75;12.18;;;4.80;80.00;;;;;;5016096;28;20034;-60
2023/02/22 08:25:15;;;;;;;20.23;11.70;;;4.90;79.30;;;;;;5016986;28;20037;-60
2023/02/22 08:27:42;;;;;;;19.73;11.82;;;5.00;79.30;;;;;;5014877;28;20044;-60
2023/02/22 08:30:13;;;;;;;22.98;12.05;;;5.00;79.30;;;;;;5016893;28;20379;-60
2023/02/22 08:32:39;;;;;;;20.13;12.10;;;5.10;79.40;;;;;;5016543;28;20042;-60
2023/02/22 08:35:05;;;;;;;19.70;11.70;;;5.20;79.50;;;;;;5017756;28;20406;-59
2023/02/22 08:37:31;;;;;;;18.90;11.52;;;5.20;79.30;;;;;;5018075;28;20129;-61
2023/02/22 08:39:56;;;;;;;47.58;22.45;;;5.30;79.50;;;;;;5022635;28;20109;-60
2023/02/22 08:42:22;;;;;;;27.05;15.23;;;5.40;79.50;;;;;;5014670;28;20037;-60
2023/02/22 08:44:48;;;;;;;21.75;12.00;;;5.50;79.70;;;;;;5015710;28;20144;-59
2023/02/22 08:47:14;;;;;;;24.02;11.38;;;5.60;79.60;;;;;;5016419;28;20584;-57
2023/02/22 08:49:41;;;;;;;19.65;11.07;;;5.70;79.70;;;;;;5016262;28;20045;-59
2023/02/22 08:52:07;;;;;;;18.10;11.70;;;5.70;79.70;;;;;;5014822;28;20517;-59
2023/02/22 08:54:33;;;;;;;20.23;12.13;;;5.80;79.70;;;;;;5015662;28;20037;-60
2023/02/22 08:56:58;;;;;;;21.63;11.95;;;5.90;79.60;;;;;;5016317;28;20527;-58
2023/02/22 08:59:24;;;;;;;22.13;11.80;;;6.00;80.50;;;;;;5016510;28;20041;-58
2023/02/22 09:01:49;;;;;;;17.17;11.05;;;6.00;79.60;;;;;;5013461;28;20046;-60
2023/02/22 09:04:15;;;;;;;18.48;11.45;;;6.10;79.50;;;;;;5017599;28;20042;-58
2023/02/22 09:06:41;;;;;;;21.27;11.57;;;6.20;79.50;;;;;;5017650;28;20103;-58
2023/02/22 09:09:07;;;;;;;22.00;10.88;;;6.30;79.40;;;;;;5018168;28;20042;-60
2023/02/22 09:11:33;;;;;;;22.63;11.40;;;6.40;79.50;;;;;;5018753;28;20091;-58
2023/02/22 09:13:58;;;;;;;18.13;10.52;;;6.40;79.50;;;;;;5017892;28;20037;-58
2023/02/22 09:16:24;;;;;;;15.05;9.70;;;6.60;79.50;;;;;;5017982;28;20494;-58
2023/02/22 09:18:49;;;;;;;13.80;9.43;;;6.60;79.70;;;;;;5017571;28;20056;-56
2023/02/22 09:21:15;;;;;;;18.25;9.60;;;6.70;79.90;;;;;;5018233;28;20047;-61
2023/02/22 09:23:41;;;;;;;12.30;9.20;;;6.80;79.80;;;;;;5017531;28;20049;-56
2023/02/22 09:26:09;;;;;;;15.15;10.00;;;6.90;79.90;;;;;;5018360;28;20030;-60
2023/02/22 09:28:35;;;;;;;17.10;9.95;;;6.90;80.00;;;;;;5032464;28;20049;-60
2023/02/22 09:31:01;;;;;;;13.73;9.55;;;7.00;79.70;;;;;;5018603;28;20029;-57
2023/02/22 09:33:26;;;;;;;13.13;9.50;;;7.00;79.50;;;;;;5017865;28;20026;-58
2023/02/22 09:35:52;;;;;;;15.55;9.13;;;7.10;79.60;;;;;;5018224;28;20072;-58
2023/02/22 09:38:24;;;;;;;11.73;8.52;;;7.20;78.90;;;;;;5019049;28;20065;-57
2023/02/22 09:41:11;;;;;;;13.98;8.75;;;7.30;79.70;;;;;;5021916;28;20028;-57
2023/02/22 09:43:55;;;;;;;10.50;8.35;;;7.30;79.50;;;;;;5021665;28;20022;-59
2023/02/22 09:46:36;;;;;;;10.52;8.00;;;7.40;79.40;;;;;;5021947;28;20037;-58
2023/02/22 09:49:21;;;;;;;10.93;7.97;;;7.50;79.30;;;;;;5021479;28;20516;-57
2023/02/22 09:52:06;;;;;;;15.10;9.00;;;7.60;79.00;;;;;;5021218;28;20056;-56
2023/02/22 09:54:45;;;;;;;13.83;8.40;;;7.70;79.20;;;;;;5020605;28;20033;-57
2023/02/22 09:57:16;;;;;;;14.35;9.38;;;7.80;79.10;;;;;;5021477;28;20030;-60
2023/02/22 10:00:00;;;;;;;14.23;9.10;;;7.80;78.90;;;;;;5021140;28;20032;-55
2023/02/22 10:02:31;;;;;;;12.88;8.70;;;7.90;78.70;;;;;;5021191;28;20041;-60
2023/02/22 10:05:08;;;;;;;14.40;8.90;;;8.00;78.50;;;;;;5021603;28;20044;-59
2023/02/22 10:07:50;;;;;;;17.35;9.30;;;8.20;78.60;;;;;;5020963;28;20113;-58
2023/02/22 10:10:19;;;;;;;15.52;9.48;;;8.30;78.60;;;;;;5023855;28;20041;-60
2023/02/22 10:13:04;;;;;;;15.20;9.30;;;8.30;78.20;;;;;;5021132;28;20509;-59
2023/02/22 10:15:33;;;;;;;;;;;8.50;78.30;;;;;;5021410;28;20037;-59
2023/02/22 10:18:23;;;;;;;18.23;9.00;;;8.50;78.20;;;;;;5021473;28;19964;-57
2023/02/22 10:21:09;;;;;;;17.27;9.32;;;8.60;77.80;;;;;;5018466;28;20041;-58
2023/02/22 10:23:48;;;;;;;14.82;9.48;;;8.70;77.70;;;;;;5019892;28;20440;-59
2023/02/22 10:26:25;;;;;;;17.95;10.40;;;8.80;77.50;;;;;;5020195;28;20049;-60
2023/02/22 10:29:08;;;;;;;14.90;9.93;;;8.90;77.20;;;;;;5020087;28;20448;-59
2023/02/22 10:31:41;;;;;;;16.33;10.35;;;9.00;77.00;;;;;;5020688;28;20064;-58
2023/02/22 10:34:14;;;;;;;18.88;10.65;;;9.10;76.80;;;;;;5020768;28;20497;-58
2023/02/22 10:36:46;;;;;;;15.88;10.35;;;9.20;76.80;;;;;;5020484;28;20034;-58
2023/02/22 10:39:32;;;;;;;15.80;10.35;;;9.30;76.70;;;;;;5020582;28;20926;-58
2023/02/22 10:42:04;;;;;;;18.08;10.68;;;9.30;76.80;;;;;;5020205;28;20041;-56
2023/02/22 10:44:37;;;;;;;15.75;10.10;;;9.40;76.60;;;;;;5018736;28;20382;-60
2023/02/22 10:47:07;;;;;;;19.45;10.10;;;9.50;76.50;;;;;;5020479;28;20037;-58
2023/02/22 10:49:41;;;;;;;16.35;10.45;;;9.60;76.50;;;;;;5019746;28;20111;-57
2023/02/22 10:52:20;;;;;;;16.02;10.13;;;9.60;76.20;;;;;;5020098;28;20045;-59
2023/02/22 10:54:49;;;;;;;16.75;10.35;;;9.70;76.00;;;;;;5020541;28;20042;-59
2023/02/22 10:57:24;;;;;;;15.13;9.95;;;9.80;75.90;;;;;;5020562;28;20442;-58
2023/02/22 10:59:50;;;;;;;17.42;10.50;;;9.90;75.60;;;;;;5020817;28;20081;-60
2023/02/22 11:02:19;;;;;;;14.38;10.23;;;10.00;75.40;;;;;;5019467;28;20049;-59
2023/02/22 11:04:50;;;;;;;16.30;9.75;;;10.10;75.30;;;;;;5020681;28;20080;-57
2023/02/22 11:07:36;;;;;;;16.55;11.02;;;10.20;75.30;;;;;;5019822;28;20033;-58
2023/02/22 11:10:05;;;;;;;17.33;10.77;;;10.30;75.10;;;;;;5019047;28;20513;-60
2023/02/22 11:12:36;;;;;;;16.83;10.23;;;10.40;74.90;;;;;;5017759;28;20030;-59
2023/02/22 11:15:22;;;;;;;17.42;10.43;;;10.50;74.40;;;;;;5019491;28;20037;-62
2023/02/22 11:17:51;;;;;;;17.92;9.73;;;10.60;74.00;;;;;;5020222;28;20045;-58
2023/02/22 11:20:24;;;;;;;15.07;10.90;;;10.70;74.00;;;;;;5019235;28;20136;-58
2023/02/22 11:22:56;;;;;;;15.75;10.05;;;10.80;74.00;;;;;;5020018;28;20058;-59
2023/02/22 11:25:38;;;;;;;16.65;10.90;;;10.80;74.00;;;;;;5019197;28;20029;-59
2023/02/22 11:28:09;;;;;;;16.25;10.05;;;10.90;73.80;;;;;;5019955;28;20033;-57
2023/02/22 11:30:35;;;;;;;14.73;10.23;;;11.00;73.70;;;;;;5019594;28;20045;-60
2023/02/22 11:33:16;;;;;;;13.27;10.02;;;11.10;73.30;;;;;;5018815;28;20029;-61
2023/02/22 11:35:58;;;;;;;13.32;9.82;;;11.20;73.00;;;;;;5019261;28;20063;-61
2023/02/22 11:38:27;;;;;;;21.02;10.18;;;11.30;73.60;;;;;;5020001;28;20034;-61
2023/02/22 11:41:15;;;;;;;16.02;9.85;;;11.40;72.90;;;;;;5019420;28;20041;-59
2023/02/22 11:43:43;;;;;;;14.40;9.88;;;11.50;73.20;;;;;;5012658;28;20034;-59
2023/02/22 11:46:14;;;;;;;13.73;9.45;;;11.50;72.60;;;;;;5020161;28;20037;-59
2023/02/22 11:49:10;;;;;;;17.45;10.65;;;11.60;72.20;;;;;;5018557;28;20308;-60
2023/02/22 11:51:48;;;;;;;14.55;10.02;;;11.70;71.50;;;;;;5017499;28;20084;-59
2023/02/22 11:54:45;;;;;;;11.95;9.50;;;11.80;71.40;;;;;;5018927;28;20046;-60
2023/02/22 11:57:16;;;;;;;14.65;10.13;;;11.90;71.10;;;;;;5018948;28;20524;-59
2023/02/22 11:59:50;;;;;;;15.18;11.30;;;11.90;71.30;;;;;;5018912;28;20061;-59
2023/02/22 12:02:51;;;;;;;13.90;9.90;;;12.00;71.10;;;;;;5018859;28;20037;-59
2023/02/22 12:05:58;;;;;;;14.70;9.95;;;12.00;70.60;;;;;;5018322;28;20481;-61
2023/02/22 12:08:27;;;;;;;16.92;10.38;;;12.10;70.40;;;;;;5018631;28;20022;-60
2023/02/22 12:11:17;;;;;;;16.00;10.35;;;12.20;70.70;;;;;;5022676;28;20556;-61
2023/02/22 12:13:57;;;;;;;15.23;10.48;;;12.20;69.90;;;;;;5019612;28;20042;-59
2023/02/22 12:16:36;;;;;;;12.85;9.73;;;12.30;70.30;;;;;;5019533;28;20052;-59
2023/02/22 12:19:08;;;;;;;14.55;10.80;;;12.40;70.10;;;;;;5019039;28;20108;-57
2023/02/22 12:21:39;;;;;;;15.00;11.15;;;12.40;69.80;;;;;;5018829;28;20116;-59
2023/02/22 12:24:15;;;;;;;17.23;10.07;;;12.40;69.40;;;;;;5017871;28;20336;-59
2023/02/22 12:27:06;;;;;;;17.85;10.50;;;12.50;69.50;;;;;;5017518;28;20033;-60
2023/02/22 12:30:08;;;;;;;13.70;10.18;;;12.50;69.70;;;;;;5017614;28;20042;-57
2023/02/22 12:32:49;;;;;;;15.55;10.90;;;12.60;69.00;;;;;;5011279;28;20481;-60
2023/02/22 12:35:24;;;;;;;14.65;10.13;;;12.70;69.50;;;;;;5018589;28;20029;-59
2023/02/22 12:37:49;;;;;;;15.05;11.00;;;12.80;69.20;;;;;;5019534;28;20548;-60
2023/02/22 12:40:46;;;;;;;15.63;11.05;;;12.90;69.30;;;;;;5017916;28;20095;-60
2023/02/22 12:43:19;;;;;;;15.45;10.68;;;12.90;68.30;;;;;;5017701;28;20030;-60
2023/02/22 12:45:44;;;;;;;13.63;10.82;;;13.00;68.80;;;;;;5018743;28;20046;-60
2023/02/22 12:48:28;;;;;;;15.35;10.93;;;13.10;68.60;;;;;;5018668;28;20512;-61
2023/02/22 12:51:10;;;;;;;14.65;10.75;;;13.20;68.10;;;;;;5018471;28;20038;-60
2023/02/22 12:53:39;;;;;;;15.88;11.93;;;13.20;68.50;;;;;;5018551;28;20061;-59
2023/02/22 12:56:26;;;;;;;15.20;10.70;;;13.30;68.40;;;;;;5018824;28;20041;-58
2023/02/22 12:59:07;;;;;;;17.08;11.27;;;13.40;67.70;;;;;;5018550;28;20427;-58
2023/02/22 13:01:39;;;;;;;15.20;11.10;;;13.50;67.70;;;;;;5018310;28;20497;-58